Sunday, January 20, 2019, 2:19 AM EST
Back to Local

KELZ, Wellsville Municipal Airport

Location: Wellsville, NY, United States Lat: 42.1
Local Time: 2:19 AM EST ( 7:19 GMT) Lon: -78
Time Zone: US/Eastern Elev: 2122 ft

Show me the last for .
Show Decoded

2019-01-20 01:56 METAR KELZ 200656Z AUTO 01007KT 1/2SM SN FZFG VV006 M11/M11 A2954 RMK AO2 SLP037
                 P0005 T11061111 $ =
2019-01-20 01:19 METAR KELZ 200619Z AUTO 01006KT 1/2SM SN FZFG VV008 M11/M11 A2956 RMK AO2 P0002
                 T11061111 $ =
2019-01-20 01:08 METAR KELZ 200608Z AUTO 36007KT 3/4SM -SN BR VV010 M11/M11 A2957 RMK AO2 P0001
                 T11061111 $ =
2019-01-20 00:56 METAR KELZ 200556Z AUTO 01007KT 1SM -SN BR VV013 M11/M11 A2957 RMK AO2 SLP049
                 P0003 60028 T11061111 11083 21106 56012 $ =
2019-01-20 00:53 METAR KELZ 200553Z AUTO 01008KT 1SM -SN BR VV013 M11/M11 A2957 RMK AO2 P0003 $ =
2019-01-20 00:37 METAR KELZ 200537Z AUTO 02008KT 1SM -SN BR VV015 M11/M11 A2958 RMK AO2 PRESFR
                 P0002 T11061111 $ =
2019-01-19 23:56 METAR KELZ 200456Z AUTO 03006KT 3/4SM -SN BR VV013 M10/M11 A2960 RMK AO2 PRESFR
                 SLP060 P0004 T11001106 410611100 $ =
2019-01-19 23:54 METAR KELZ 200454Z AUTO 02006KT 3/4SM -SN BR BKN013 OVC021 M10/M11 A2961 RMK AO2
                 PRESFR P0004 $ =
2019-01-19 23:37 METAR KELZ 200437Z AUTO 03005KT 1SM -SN BR BKN015 OVC022 M10/M10 A2963 RMK AO2
                 P0003 T11001100 $ =
2019-01-19 22:56 METAR KELZ 200356Z AUTO 04007KT 1/2SM SN FZFG VV010 M09/M10 A2965 RMK AO2 SLP075
                 P0006 T10941100 $ =
2019-01-19 21:56 METAR KELZ 200256Z AUTO 08006KT 1/2SM SN FZFG VV009 M08/M09 A2969 RMK AO2 SLP089
                 P0005 60015 T10831089 56041 $ =
2019-01-19 21:25 METAR KELZ 200225Z AUTO 08006KT 1/2SM SN FZFG VV010 M08/M09 A2972 RMK AO2 P0002
                 T10831089 $ =
2019-01-19 20:56 METAR KELZ 200156Z AUTO 08007KT 1/2SM SN FZFG VV009 M09/M09 A2973 RMK AO2 SLP102
                 P0005 T10891089 $ =
2019-01-19 19:56 METAR KELZ 200056Z AUTO 09005KT 1/2SM -SN FZFG VV010 M09/M09 A2978 RMK AO2
                 SLP120 P0005 T10891089 $ =
2019-01-19 19:35 METAR KELZ 200035Z AUTO 08007KT 1/2SM -SN FZFG VV010 M09/M09 A2979 RMK AO2 P0003
                 T10891089 $ =
2019-01-19 19:28 METAR KELZ 200028Z AUTO 08007KT 1/2SM -SN FZFG VV009 M08/M09 A2980 RMK AO2 P0003
                 T10831089 $ =
2019-01-19 19:19 METAR KELZ 200019Z AUTO 07007KT 1/2SM -SN FZFG VV010 M08/M09 A2980 RMK AO2 P0002
                 T10831089 $ =
2019-01-19 19:10 METAR KELZ 200010Z AUTO 08007KT 1/2SM SN FZFG VV009 M08/M08 A2981 RMK AO2 P0002
                 T10831083 $ =
2019-01-19 18:56 METAR KELZ 192356Z AUTO 07007KT 1/2SM -SN FZFG VV010 M08/M08 A2982 RMK AO2
                 SLP134 P0003 60011 T10831083 11061 21083 58024 $ =
2019-01-19 18:26 METAR KELZ 192326Z AUTO 08008KT 3/4SM -SN BR SCT008 OVC013 M08/M08 A2983 RMK AO2
                 P0001 T10781078 $ =
2019-01-19 18:08 METAR KELZ 192308Z AUTO 07007KT 1 1/4SM -SN BR OVC008 M07/M07 A2984 RMK AO2 CIG
                 004V011 P0000 T10721072 $ =
2019-01-19 17:56 METAR KELZ 192256Z AUTO 07008KT 1 1/2SM -SN BR OVC010 M07/M07 A2985 RMK AO2 CIG
                 007V013 SLP141 P0003 T10721072 $ =
2019-01-19 17:32 METAR KELZ 192232Z AUTO 07009KT 1 1/4SM -SN BR OVC012 M07/M07 A2986 RMK AO2
                 P0001 T10721072 $ =
2019-01-19 17:09 METAR KELZ 192209Z AUTO 06008KT 1/2SM -SN FZFG VV011 M07/M07 A2987 RMK AO2 P0000
                 T10671072 $ =
2019-01-19 16:56 METAR KELZ 192156Z AUTO 07008KT 1/2SM -SN FZFG BKN009 OVC013 M07/M07 A2988 RMK
                 AO2 SLP151 P0001 T10671072 $ =
2019-01-19 16:37 METAR KELZ 192137Z AUTO 07007KT 1 3/4SM -SN BR OVC009 M07/M07 A2989 RMK AO2
                 P0000 T10671072 $ =
2019-01-19 16:32 METAR KELZ 192132Z AUTO 07007KT 2 1/2SM -SN BR OVC010 M07/M07 A2989 RMK AO2
                 P0000 T10671072 $ =
2019-01-19 15:56 METAR KELZ 192056Z AUTO 08005KT 1 1/2SM -SN BR BKN012 OVC027 M06/M07 A2990 RMK
                 AO2 SLP158 P0001 60004 T10611067 58016 $ =
2019-01-19 15:49 METAR KELZ 192049Z AUTO 11006KT 1 1/2SM -SN BR SCT012 OVC027 M06/M07 A2990 RMK
                 AO2 P0001 T10611067 $ =
2019-01-19 15:41 METAR KELZ 192041Z AUTO 11006KT 2SM -SN BR FEW012 OVC027 M06/M07 A2990 RMK AO2
                 P0001 T10611067 $ =
2019-01-19 15:06 METAR KELZ 192006Z AUTO 12008KT 1SM -SN BR VV018 M07/M07 A2990 RMK AO2 P0000
                 T10671072 $ =
2019-01-19 14:56 METAR KELZ 191956Z AUTO 11008KT 3/4SM -SN BR VV017 M07/M07 A2990 RMK AO2 SLP160
                 P0001 T10671072 $ =
2019-01-19 14:24 METAR KELZ 191924Z AUTO 12010KT 3/4SM -SN BR SCT006 OVC019 M07/M07 A2993 RMK AO2
                 P0001 T10671072 $ =
2019-01-19 14:15 METAR KELZ 191915Z AUTO 12007KT 1SM -SN BR SCT006 OVC020 M07/M07 A2993 RMK AO2
                 P0001 T10671072 $ =
2019-01-19 13:56 METAR KELZ 191856Z AUTO 11007KT 3/4SM -SN BR BKN006 OVC019 M07/M07 A2995 RMK AO2
                 SLP175 P0002 T10671067 $ =
2019-01-19 13:54 METAR KELZ 191854Z AUTO 11007KT 3/4SM -SN BR BKN006 OVC019 M07/M07 A2995 RMK AO2
                 P0002 $ =
2019-01-19 13:20 METAR KELZ 191820Z AUTO 11008KT 3/4SM -SN BR OVC004 M07/M07 A2997 RMK AO2 P0001
                 T10721072 $ =
2019-01-19 13:06 METAR KELZ 191806Z AUTO 10007KT 3/4SM -SN BR OVC005 M07/M07 A2998 RMK AO2 PRESFR
                 P0001 T10721072 $ =
2019-01-19 12:56 METAR KELZ 191756Z AUTO 10007KT 1 1/4SM -SN BR OVC005 M07/M07 A2999 RMK AO2
                 SNB43 SLP192 P0000 60005 I1001 I6001 T10721072 11067 21078 58035 $ =
2019-01-19 12:17 METAR KELZ 191717Z AUTO 10008KT 1 1/4SM BR OVC007 M07/M07 A3003 RMK AO2 CIG
                 005V010 I1000 T10671072 $ =
2019-01-19 12:10 METAR KELZ 191710Z AUTO 10007KT 2SM BR OVC010 M07/M08 A3003 RMK AO2 CIG 006V010
                 T10671078 $ =
2019-01-19 11:56 METAR KELZ 191656Z AUTO 10006KT 4SM BR OVC010 M07/M08 A3004 RMK AO2 SLP207
                 T10671078 $ =
2019-01-19 10:56 METAR KELZ 191556Z AUTO 08007KT 10SM OVC014 M07/M08 A3007 RMK AO2 SNE13 SLP217
                 P0000 T10671078 $ =
2019-01-19 10:42 METAR KELZ 191542Z AUTO 08007KT 10SM OVC014 M07/M08 A3009 RMK AO2 SNE13 P0000
                 T10721078 $ =
2019-01-19 10:17 METAR KELZ 191517Z AUTO 08006KT 9SM OVC018 M07/M08 A3009 RMK AO2 SNE13 P0000
                 T10721078 $ =
2019-01-19 10:09 METAR KELZ 191509Z AUTO 09005KT 2SM -SN BR OVC018 M07/M08 A3010 RMK AO2 P0000
                 T10721078 $ =
2019-01-19 09:56 METAR KELZ 191456Z AUTO 08006KT 1/2SM -SN FZFG VV020 M07/M08 A3010 RMK AO2
                 SLP227 P0002 60005 T10721078 50001 $ =
2019-01-19 09:03 METAR KELZ 191403Z AUTO 08005KT 3/4SM -SN BR FEW005 OVC023 M08/M08 A3011 RMK AO2
                 P0000 T10781083 $ =
2019-01-19 08:56 METAR KELZ 191356Z AUTO 09006KT 1SM -SN BR FEW005 OVC027 M07/M08 A3011 RMK AO2
                 SLP230 P0001 T10721078 $ =
2019-01-19 08:44 METAR KELZ 191344Z AUTO 09005KT 1SM -SN BR FEW005 OVC027 M08/M08 A3011 RMK AO2
                 P0001 T10781083 $ =
2019-01-19 08:07 METAR KELZ 191307Z AUTO 06005KT 3/4SM -SN BR FEW004 OVC021 M07/M08 A3012 RMK AO2
                 P0000 T10721078 $ =
2019-01-19 07:56 METAR KELZ 191256Z AUTO VRB06KT 3/4SM -SN BR OVC025 M08/M08 A3012 RMK AO2 SLP232
                 P0002 T10781078 $ =
2019-01-19 07:20 METAR KELZ 191220Z AUTO 07003KT 1SM -SN BR VV015 M07/M08 A3010 RMK AO2 P0001
                 T10721078 $ =
2019-01-19 06:56 METAR KELZ 191156Z AUTO 05004KT 3/4SM -SN BR VV012 M07/M08 A3010 RMK AO2 SNB03
                 SLP226 P0002 60002 70003 T10721078 11061 21072 55008 $ =
2019-01-19 06:48 METAR KELZ 191148Z AUTO 00000KT 3/4SM -SN BR VV014 M07/M08 A3011 RMK AO2 SNB03
                 P0001 T10721083 $ =
2019-01-19 06:27 METAR KELZ 191127Z AUTO 00000KT 1 1/4SM -SN BR OVC021 M07/M09 A3011 RMK AO2
                 SNB03 P0000 T10721089 $ =
2019-01-19 06:16 METAR KELZ 191116Z AUTO 00000KT 2SM -SN BR BKN018 OVC025 M07/M09 A3010 RMK AO2
                 SNB03 P0000 T10721089 $ =
2019-01-19 05:56 METAR KELZ 191056Z AUTO 00000KT 10SM OVC019 M07/M09 A3009 RMK AO2 SLP222
                 T10671089 $ =
2019-01-19 04:56 METAR KELZ 190956Z AUTO 01003KT 10SM OVC023 M07/M09 A3010 RMK AO2 SLP225
                 T10721094 $ =
2019-01-19 03:56 METAR KELZ 190856Z AUTO 36005KT 10SM OVC026 M07/M09 A3013 RMK AO2 SLP234
                 T10721094 53002 $ =
2019-01-19 02:56 METAR KELZ 190756Z AUTO 01004KT 10SM OVC025 M07/M09 A3012 RMK AO2 SLP231
                 T10671089 $ =

Support USWX by starting your Amazon purchase here.